Time;durP1;ratioP1;P1;durP2;ratioP2;P2;SDS_P1;SDS_P2;PMS_P1;PMS_P2;Temp;Humidity;BMP_temperature;BMP_pressure;BME280_temperature;BME280_humidity;BME280_pressure;Samples;Min_cycle;Max_cycle;Signal;HPM_P1;HPM_P2
2022/09/19 00:04:32;;;;;;;1.83;1.20;;;;;;;;;;10398807;28;20865;-56
2022/09/19 00:09:33;;;;;;;1.70;1.05;;;;;;;;;;10380612;28;20136;-63
2022/09/19 00:14:34;;;;;;;1.35;0.95;;;;;;;;;;10358546;28;20465;-56
2022/09/19 00:19:35;;;;;;;2.03;1.10;;;;;;;;;;10393946;28;20481;-61
2022/09/19 00:24:49;;;;;;;2.30;1.10;;;;;;;;;;10371950;28;20116;-63
2022/09/19 00:29:50;;;;;;;1.88;1.35;;;;;;;;;;10381876;28;20088;-62
2022/09/19 00:34:54;;;;;;;2.60;1.40;;;;;;;;;;10402646;28;20087;-61
2022/09/19 00:39:55;;;;;;;1.65;1.13;;;;;;;;;;10393647;28;20397;-61
2022/09/19 00:44:55;;;;;;;5.25;0.98;;;;;;;;;;10393925;28;20041;-64
2022/09/19 00:49:58;;;;;;;1.60;1.30;;;;;;;;;;10407831;28;20022;-63
2022/09/19 00:54:58;;;;;;;0.90;0.90;;;;;;;;;;10402553;28;20488;-62
2022/09/19 00:59:58;;;;;;;1.77;1.10;;;;;;;;;;10354099;28;20042;-62
2022/09/19 01:05:01;;;;;;;3.83;1.23;;;;;;;;;;10386374;28;20401;-64
2022/09/19 01:10:20;;;;;;;1.30;1.02;;;;;;;;;;10397917;28;20040;-64
2022/09/19 01:15:28;;;;;;;2.20;1.10;;;;;;;;;;10378576;28;20073;-62
2022/09/19 01:20:37;;;;;;;1.52;1.02;;;;;;;;;;10377447;28;20029;-63
2022/09/19 01:26:00;;;;;;;1.70;1.20;;;;;;;;;;10366633;28;20029;-50
2022/09/19 01:31:18;;;;;;;2.88;0.90;;;;;;;;;;10380943;28;20033;-55
2022/09/19 01:36:20;;;;;;;1.35;1.10;;;;;;;;;;10349731;28;20497;-56
2022/09/19 01:41:21;;;;;;;2.15;1.17;;;;;;;;;;10359412;28;20018;-53
2022/09/19 01:46:26;;;;;;;4.43;1.10;;;;;;;;;;10370639;28;20084;-52
2022/09/19 01:51:28;;;;;;;3.22;1.17;;;;;;;;;;10365796;28;20042;-51
2022/09/19 01:56:39;;;;;;;0.82;0.80;;;;;;;;;;10365282;28;20265;-52
2022/09/19 02:01:58;;;;;;;1.13;0.90;;;;;;;;;;10363000;28;20030;-54
2022/09/19 02:07:08;;;;;;;1.58;1.08;;;;;;;;;;10379622;28;20036;-62
2022/09/19 02:12:10;;;;;;;1.75;1.10;;;;;;;;;;10368218;28;20033;-61
2022/09/19 02:17:12;;;;;;;1.15;0.90;;;;;;;;;;10367179;28;20029;-62
2022/09/19 02:22:20;;;;;;;1.05;0.93;;;;;;;;;;10353819;28;20566;-50
2022/09/19 02:27:23;;;;;;;1.93;1.30;;;;;;;;;;10364782;28;20041;-48
2022/09/19 02:32:24;;;;;;;1.80;1.05;;;;;;;;;;10370655;28;20025;-54
2022/09/19 02:37:25;;;;;;;0.70;0.70;;;;;;;;;;10372041;28;20351;-54
2022/09/19 02:42:33;;;;;;;1.77;0.93;;;;;;;;;;10379044;28;20121;-50
2022/09/19 02:47:39;;;;;;;1.20;0.90;;;;;;;;;;10373717;28;20393;-51
2022/09/19 02:52:40;;;;;;;0.75;0.70;;;;;;;;;;10352232;28;20038;-53
2022/09/19 02:57:45;;;;;;;1.55;1.05;;;;;;;;;;10371232;28;20092;-53
2022/09/19 03:02:59;;;;;;;0.70;0.70;;;;;;;;;;10383641;28;20048;-52
2022/09/19 03:08:02;;;;;;;1.95;0.93;;;;;;;;;;10385444;28;20513;-56
2022/09/19 03:13:04;;;;;;;0.70;0.70;;;;;;;;;;10395337;28;20053;-53
2022/09/19 03:18:07;;;;;;;0.98;0.93;;;;;;;;;;10376064;28;20053;-63
2022/09/19 03:23:08;;;;;;;1.38;0.85;;;;;;;;;;10383279;28;20026;-63
2022/09/19 03:28:09;;;;;;;1.13;0.90;;;;;;;;;;10400006;28;20021;-54
2022/09/19 03:33:16;;;;;;;1.88;1.00;;;;;;;;;;10398466;28;20481;-62
2022/09/19 03:38:17;;;;;;;0.95;0.80;;;;;;;;;;10381412;28;20034;-53
2022/09/19 03:43:20;;;;;;;0.80;0.80;;;;;;;;;;10386985;28;20025;-49
2022/09/19 03:48:21;;;;;;;1.05;0.95;;;;;;;;;;10381915;28;20030;-49
2022/09/19 03:53:21;;;;;;;1.48;0.95;;;;;;;;;;10369421;28;20030;-53
2022/09/19 03:58:23;;;;;;;1.57;0.80;;;;;;;;;;10369822;28;20022;-56
2022/09/19 04:03:23;;;;;;;1.20;0.93;;;;;;;;;;10347154;28;20037;-55
2022/09/19 04:08:24;;;;;;;1.00;0.90;;;;;;;;;;10398909;28;20025;-63
2022/09/19 04:13:24;;;;;;;1.30;0.80;;;;;;;;;;10396286;28;20607;-62
2022/09/19 04:18:24;;;;;;;0.63;0.63;;;;;;;;;;10368258;28;20030;-61
2022/09/19 04:23:26;;;;;;;0.95;0.80;;;;;;;;;;10368625;28;20030;-54
2022/09/19 04:28:26;;;;;;;2.70;0.70;;;;;;;;;;10367539;28;20029;-54
2022/09/19 04:33:27;;;;;;;3.03;0.70;;;;;;;;;;10389732;28;20427;-54
2022/09/19 04:38:30;;;;;;;1.08;0.75;;;;;;;;;;10372456;28;20493;-54
2022/09/19 04:43:31;;;;;;;1.10;1.00;;;;;;;;;;10376996;28;20048;-53
2022/09/19 04:48:32;;;;;;;0.80;0.73;;;;;;;;;;10363958;28;20033;-54
2022/09/19 04:53:32;;;;;;;1.17;0.80;;;;;;;;;;10365526;28;20507;-53
2022/09/19 04:58:33;;;;;;;0.82;0.77;;;;;;;;;;10381566;28;20033;-55
2022/09/19 05:03:33;;;;;;;2.72;0.90;;;;;;;;;;10358780;28;20119;-57
2022/09/19 05:08:34;;;;;;;5.63;1.10;;;;;;;;;;10384601;28;20125;-57
2022/09/19 05:13:36;;;;;;;1.43;0.87;;;;;;;;;;10379453;28;20054;-57
2022/09/19 05:18:37;;;;;;;5.00;0.80;;;;;;;;;;10364649;28;20037;-56
2022/09/19 05:23:38;;;;;;;7.07;0.90;;;;;;;;;;10371110;28;20026;-59
2022/09/19 05:28:38;;;;;;;2.05;0.90;;;;;;;;;;10375892;28;20046;-58
2022/09/19 05:33:39;;;;;;;10.68;1.00;;;;;;;;;;10367548;28;20492;-59
2022/09/19 05:38:39;;;;;;;1.73;1.08;;;;;;;;;;10371531;28;20034;-58
2022/09/19 05:43:40;;;;;;;6.70;1.00;;;;;;;;;;10365603;28;20071;-59
2022/09/19 05:48:40;;;;;;;3.23;1.00;;;;;;;;;;10352872;28;20487;-58
2022/09/19 05:53:52;;;;;;;4.10;1.13;;;;;;;;;;10371398;28;20112;-58
2022/09/19 05:58:54;;;;;;;24.85;2.50;;;;;;;;;;10371960;28;20034;-59
2022/09/19 06:03:54;;;;;;;11.80;1.88;;;;;;;;;;10365562;28;20030;-62
2022/09/19 06:08:56;;;;;;;8.82;1.35;;;;;;;;;;10375314;28;20429;-60
2022/09/19 06:14:15;;;;;;;18.98;1.73;;;;;;;;;;10401276;28;20046;-57
2022/09/19 06:19:15;;;;;;;6.18;1.30;;;;;;;;;;10376812;28;20398;-59
2022/09/19 06:24:16;;;;;;;7.40;1.38;;;;;;;;;;10372280;28;20033;-59
2022/09/19 06:29:16;;;;;;;7.22;1.70;;;;;;;;;;10363342;28;20034;-63
2022/09/19 06:34:17;;;;;;;5.55;1.27;;;;;;;;;;10382020;28;20033;-64
2022/09/19 06:39:17;;;;;;;5.75;1.52;;;;;;;;;;10376697;28;20041;-65
2022/09/19 06:44:17;;;;;;;6.47;1.30;;;;;;;;;;10385388;28;20037;-63
2022/09/19 06:49:18;;;;;;;4.23;1.40;;;;;;;;;;10399183;28;20500;-63
2022/09/19 06:54:18;;;;;;;9.88;1.60;;;;;;;;;;10371789;28;20479;-63
2022/09/19 06:59:19;;;;;;;10.25;1.63;;;;;;;;;;10371785;28;20030;-64
2022/09/19 07:04:19;;;;;;;5.13;1.27;;;;;;;;;;10382914;28;20504;-67
2022/09/19 07:09:19;;;;;;;2.43;1.43;;;;;;;;;;10374738;28;20227;-65
2022/09/19 07:14:20;;;;;;;5.78;1.52;;;;;;;;;;10369350;28;20052;-60
2022/09/19 07:19:20;;;;;;;12.80;1.38;;;;;;;;;;10347065;28;20099;-60
2022/09/19 07:24:20;;;;;;;4.80;1.47;;;;;;;;;;10373692;28;20377;-57
2022/09/19 07:29:21;;;;;;;3.27;1.20;;;;;;;;;;10369048;28;20443;-67
2022/09/19 07:34:22;;;;;;;3.63;1.17;;;;;;;;;;10370627;28;20128;-58
2022/09/19 07:39:22;;;;;;;2.58;1.13;;;;;;;;;;10378245;28;20034;-57
2022/09/19 07:44:22;;;;;;;4.43;1.35;;;;;;;;;;10383212;28;20048;-66
2022/09/19 07:49:22;;;;;;;4.35;1.17;;;;;;;;;;10368300;28;20037;-60
2022/09/19 07:54:23;;;;;;;3.50;1.17;;;;;;;;;;10369348;28;20124;-57
2022/09/19 07:59:23;;;;;;;2.38;1.08;;;;;;;;;;10372050;28;20037;-58
2022/09/19 08:04:23;;;;;;;1.92;1.33;;;;;;;;;;10369900;28;20072;-61
2022/09/19 08:09:24;;;;;;;2.42;1.20;;;;;;;;;;10362104;28;20044;-61
2022/09/19 08:14:24;;;;;;;2.40;1.00;;;;;;;;;;10380699;28;20587;-61
2022/09/19 08:19:25;;;;;;;2.55;1.10;;;;;;;;;;10361342;28;20137;-63
2022/09/19 08:24:25;;;;;;;3.10;1.10;;;;;;;;;;10367258;28;20022;-57
2022/09/19 08:29:26;;;;;;;5.40;1.00;;;;;;;;;;10366761;28;20022;-59
2022/09/19 08:34:27;;;;;;;4.13;1.38;;;;;;;;;;10360505;28;20109;-63
2022/09/19 08:39:27;;;;;;;6.05;1.13;;;;;;;;;;10366406;28;20037;-67
2022/09/19 08:44:46;;;;;;;4.50;1.30;;;;;;;;;;10367460;28;20026;-59
2022/09/19 08:49:51;;;;;;;1.45;1.23;;;;;;;;;;10370046;28;20137;-58
2022/09/19 08:54:52;;;;;;;2.60;1.10;;;;;;;;;;10366824;28;20037;-66
2022/09/19 09:00:07;;;;;;;2.47;1.20;;;;;;;;;;10361034;28;20069;-66
2022/09/19 09:05:27;;;;;;;1.33;0.95;;;;;;;;;;10366819;28;20088;-65
2022/09/19 09:10:30;;;;;;;1.80;1.10;;;;;;;;;;10334255;28;20041;-57
2022/09/19 09:15:58;;;;;;;1.95;1.08;;;;;;;;;;10366273;28;20083;-57
2022/09/19 09:21:04;;;;;;;7.38;1.48;;;;;;;;;;10358586;28;20056;-57
2022/09/19 09:26:06;;;;;;;1.15;0.95;;;;;;;;;;10366032;28;20032;-57
2022/09/19 09:31:24;;;;;;;2.58;1.10;;;;;;;;;;10364985;28;20038;-59
2022/09/19 09:36:30;;;;;;;2.35;1.10;;;;;;;;;;10358369;28;20030;-59
2022/09/19 09:41:45;;;;;;;1.45;1.13;;;;;;;;;;10361687;28;20187;-67
2022/09/19 09:46:48;;;;;;;1.98;1.20;;;;;;;;;;10365828;28;20040;-59
2022/09/19 09:52:08;;;;;;;4.10;1.25;;;;;;;;;;10364911;28;20487;-57
2022/09/19 09:57:15;;;;;;;1.38;1.00;;;;;;;;;;10364932;28;20061;-57
2022/09/19 10:07:56;;;;;;;1.30;1.20;;;;;;;;;;10367277;28;20030;-62
2022/09/19 10:13:04;;;;;;;1.70;1.00;;;;;;;;;;10359750;28;20386;-57
2022/09/19 10:18:09;;;;;;;2.55;1.30;;;;;;;;;;10365807;28;20062;-57
2022/09/19 10:23:14;;;;;;;1.40;0.82;;;;;;;;;;10355512;28;20026;-58
2022/09/19 10:28:37;;;;;;;1.20;0.98;;;;;;;;;;10363795;28;20092;-58
2022/09/19 10:33:38;;;;;;;1.77;0.98;;;;;;;;;;10365421;28;20461;-57
2022/09/19 10:39:09;;;;;;;1.83;1.00;;;;;;;;;;10363826;28;20026;-57
2022/09/19 10:44:17;;;;;;;1.60;0.90;;;;;;;;;;10350917;28;20041;-60
2022/09/19 10:49:20;;;;;;;2.90;1.13;;;;;;;;;;10364826;28;20076;-56
2022/09/19 10:54:31;;;;;;;2.08;1.33;;;;;;;;;;10369275;28;20063;-58
2022/09/19 10:59:36;;;;;;;0.93;0.88;;;;;;;;;;10369083;28;20029;-59
2022/09/19 11:04:37;;;;;;;1.85;0.80;;;;;;;;;;10371841;28;20033;-59
2022/09/19 11:09:37;;;;;;;1.90;1.10;;;;;;;;;;10370268;28;20029;-59
2022/09/19 11:14:39;;;;;;;1.23;0.90;;;;;;;;;;10378669;28;20045;-60
2022/09/19 11:19:41;;;;;;;1.33;1.00;;;;;;;;;;10376903;28;20562;-57
2022/09/19 11:24:53;;;;;;;2.15;0.90;;;;;;;;;;10376908;28;20556;-57
2022/09/19 11:30:00;;;;;;;4.00;1.38;;;;;;;;;;10359287;28;20033;-57
2022/09/19 11:35:19;;;;;;;0.90;0.68;;;;;;;;;;10367070;28;20374;-57
2022/09/19 11:40:38;;;;;;;1.75;1.05;;;;;;;;;;10374563;28;20362;-56
2022/09/19 11:45:59;;;;;;;3.53;1.00;;;;;;;;;;10397346;28;20056;-57
2022/09/19 11:51:05;;;;;;;2.47;0.82;;;;;;;;;;10363300;28;20034;-57
2022/09/19 11:56:23;;;;;;;1.88;1.20;;;;;;;;;;10375001;28;20037;-57
2022/09/19 12:01:42;;;;;;;1.95;1.10;;;;;;;;;;10376576;28;20033;-57
2022/09/19 12:06:42;;;;;;;2.28;1.17;;;;;;;;;;10367719;28;20080;-57
2022/09/19 12:12:03;;;;;;;4.68;0.80;;;;;;;;;;10372626;28;20481;-57
2022/09/19 12:17:13;;;;;;;3.85;0.90;;;;;;;;;;10359857;28;20116;-57
2022/09/19 12:22:19;;;;;;;3.60;1.05;;;;;;;;;;10362354;28;20029;-57
2022/09/19 12:27:36;;;;;;;4.13;1.08;;;;;;;;;;10369575;28;20401;-56
2022/09/19 12:32:46;;;;;;;2.67;1.08;;;;;;;;;;10355518;28;20038;-57
2022/09/19 12:38:06;;;;;;;4.72;1.10;;;;;;;;;;10378071;28;20053;-57
2022/09/19 12:43:25;;;;;;;5.55;1.08;;;;;;;;;;10376028;28;20495;-56
2022/09/19 12:48:44;;;;;;;3.33;0.93;;;;;;;;;;10376913;28;20504;-57
2022/09/19 12:53:47;;;;;;;4.50;0.95;;;;;;;;;;10373898;28;20057;-56
2022/09/19 12:58:58;;;;;;;1.48;0.93;;;;;;;;;;10361819;28;20069;-56
2022/09/19 13:04:14;;;;;;;2.90;1.33;;;;;;;;;;10365684;28;20036;-57
2022/09/19 13:09:22;;;;;;;2.05;1.00;;;;;;;;;;10380763;28;20409;-57
2022/09/19 13:14:34;;;;;;;1.13;0.95;;;;;;;;;;10369917;28;20060;-60
2022/09/19 13:24:58;;;;;;;1.00;0.90;;;;;;;;;;10368359;28;20026;-57
2022/09/19 13:30:00;;;;;;;4.10;1.30;;;;;;;;;;10384308;28;20022;-58
2022/09/19 13:35:00;;;;;;;2.83;1.00;;;;;;;;;;10360095;28;20037;-56
2022/09/19 13:40:16;;;;;;;1.55;1.02;;;;;;;;;;10376782;28;20096;-56
2022/09/19 13:45:34;;;;;;;2.80;1.02;;;;;;;;;;10369180;28;20561;-58
2022/09/19 13:50:42;;;;;;;2.42;1.38;;;;;;;;;;10365443;28;20022;-56
2022/09/19 13:55:44;;;;;;;4.38;1.20;;;;;;;;;;10368159;28;20038;-57
2022/09/19 14:00:46;;;;;;;3.33;1.05;;;;;;;;;;10373594;28;20079;-56
2022/09/19 14:05:46;;;;;;;3.33;1.02;;;;;;;;;;10384960;28;20042;-57
2022/09/19 14:10:48;;;;;;;3.28;0.98;;;;;;;;;;10364955;28;20042;-57
2022/09/19 14:16:04;;;;;;;3.92;1.17;;;;;;;;;;10365491;28;20393;-57
2022/09/19 14:21:05;;;;;;;3.30;1.30;;;;;;;;;;10378699;28;20030;-56
2022/09/19 14:26:12;;;;;;;1.58;1.17;;;;;;;;;;10391278;28;20030;-58
2022/09/19 14:31:21;;;;;;;2.85;2.00;;;;;;;;;;10373571;28;20264;-56
2022/09/19 14:36:51;;;;;;;3.13;1.88;;;;;;;;;;10371503;28;20105;-57
2022/09/19 14:42:04;;;;;;;7.85;2.08;;;;;;;;;;10397307;28;20033;-56
2022/09/19 14:47:16;;;;;;;3.13;2.10;;;;;;;;;;10403931;28;20045;-57
2022/09/19 14:52:19;;;;;;;3.97;2.22;;;;;;;;;;10383806;28;20041;-56
2022/09/19 14:57:20;;;;;;;5.78;2.30;;;;;;;;;;10360141;28;20037;-56
2022/09/19 15:02:20;;;;;;;5.50;2.42;;;;;;;;;;10374058;28;20029;-56
2022/09/19 15:07:25;;;;;;;6.82;2.40;;;;;;;;;;10369875;28;20025;-57
2022/09/19 15:12:32;;;;;;;2.78;1.80;;;;;;;;;;10378242;28;20568;-57
2022/09/19 15:17:33;;;;;;;5.57;2.57;;;;;;;;;;10375144;28;20034;-56
2022/09/19 15:22:41;;;;;;;3.65;2.15;;;;;;;;;;10381468;28;20589;-57
2022/09/19 15:27:46;;;;;;;3.47;2.00;;;;;;;;;;10375557;28;20401;-57
2022/09/19 15:32:49;;;;;;;4.95;2.17;;;;;;;;;;10364293;28;20087;-58
2022/09/19 15:37:50;;;;;;;3.53;1.75;;;;;;;;;;10370915;28;20033;-57
2022/09/19 15:42:50;;;;;;;4.85;2.10;;;;;;;;;;10370096;28;20036;-56
2022/09/19 15:47:55;;;;;;;3.85;2.47;;;;;;;;;;10379924;28;20025;-56
2022/09/19 15:52:56;;;;;;;4.03;2.00;;;;;;;;;;10387498;28;20112;-57
2022/09/19 15:57:57;;;;;;;2.28;1.80;;;;;;;;;;10377554;28;20022;-57
2022/09/19 16:02:59;;;;;;;3.05;1.85;;;;;;;;;;10367817;28;20026;-56
2022/09/19 16:13:41;;;;;;;2.60;1.80;;;;;;;;;;10371309;28;20057;-56
2022/09/19 16:18:48;;;;;;;3.70;1.90;;;;;;;;;;10391828;28;20109;-57
2022/09/19 16:23:51;;;;;;;2.45;1.70;;;;;;;;;;10359941;28;20080;-57
2022/09/19 16:28:55;;;;;;;2.53;1.60;;;;;;;;;;10361028;28;20038;-55
2022/09/19 16:33:57;;;;;;;1.70;1.30;;;;;;;;;;10364229;28;20061;-58
2022/09/19 16:39:00;;;;;;;3.47;1.95;;;;;;;;;;10356324;28;20071;-55
2022/09/19 16:44:00;;;;;;;6.18;1.67;;;;;;;;;;10356746;28;20083;-50
2022/09/19 16:49:00;;;;;;;4.55;1.85;;;;;;;;;;10359475;28;20034;-53
2022/09/19 16:54:02;;;;;;;1.90;1.23;;;;;;;;;;10365343;28;20041;-54
2022/09/19 16:59:08;;;;;;;2.70;1.23;;;;;;;;;;10367616;28;20428;-52
2022/09/19 17:04:11;;;;;;;3.38;1.40;;;;;;;;;;10368137;28;20117;-52
2022/09/19 17:09:12;;;;;;;1.30;1.20;;;;;;;;;;10377702;28;20040;-53
2022/09/19 17:14:15;;;;;;;3.63;1.50;;;;;;;;;;10366818;28;20054;-52
2022/09/19 17:19:15;;;;;;;2.00;1.45;;;;;;;;;;10366373;28;20462;-51
2022/09/19 17:24:16;;;;;;;5.03;1.40;;;;;;;;;;10361488;28;20037;-53
2022/09/19 17:29:17;;;;;;;2.38;1.40;;;;;;;;;;10348039;28;20033;-52
2022/09/19 17:34:18;;;;;;;3.20;1.52;;;;;;;;;;10357054;28;20092;-51
2022/09/19 17:39:18;;;;;;;4.23;1.50;;;;;;;;;;10354422;28;20042;-50
2022/09/19 17:44:18;;;;;;;1.50;1.20;;;;;;;;;;10378977;28;20053;-49
2022/09/19 17:49:18;;;;;;;1.10;1.02;;;;;;;;;;10365431;28;20045;-52
2022/09/19 17:54:19;;;;;;;1.33;1.20;;;;;;;;;;10375652;28;20038;-53
2022/09/19 17:59:20;;;;;;;2.60;1.35;;;;;;;;;;10359387;28;20026;-54
2022/09/19 18:04:20;;;;;;;2.83;1.30;;;;;;;;;;10377812;28;20041;-53
2022/09/19 18:09:21;;;;;;;4.35;1.35;;;;;;;;;;10392401;28;20033;-56
2022/09/19 18:14:21;;;;;;;4.43;1.23;;;;;;;;;;10373867;28;20107;-58
2022/09/19 18:19:22;;;;;;;5.38;1.60;;;;;;;;;;10359080;28;20073;-55
2022/09/19 18:24:23;;;;;;;3.78;1.50;;;;;;;;;;10352814;28;20091;-58
2022/09/19 18:29:24;;;;;;;2.15;1.33;;;;;;;;;;10378785;28;20681;-56
2022/09/19 18:34:25;;;;;;;2.28;1.48;;;;;;;;;;10387261;28;20029;-57
2022/09/19 18:39:25;;;;;;;3.23;1.30;;;;;;;;;;10364359;28;20040;-59
2022/09/19 18:44:25;;;;;;;4.88;1.13;;;;;;;;;;10358989;28;20475;-55
2022/09/19 18:49:26;;;;;;;3.35;1.30;;;;;;;;;;10372576;28;20036;-56
2022/09/19 18:54:27;;;;;;;3.38;1.63;;;;;;;;;;10367713;28;20033;-55
2022/09/19 18:59:28;;;;;;;2.13;1.30;;;;;;;;;;10365852;28;20393;-54
2022/09/19 19:04:28;;;;;;;3.22;1.52;;;;;;;;;;10370201;28;20036;-55
2022/09/19 19:09:28;;;;;;;4.10;1.43;;;;;;;;;;10378665;28;20029;-57
2022/09/19 19:14:28;;;;;;;2.33;1.45;;;;;;;;;;10396881;28;20053;-56
2022/09/19 19:19:29;;;;;;;12.60;1.77;;;;;;;;;;10381554;28;20034;-59
2022/09/19 19:24:29;;;;;;;9.65;1.90;;;;;;;;;;10361716;28;20045;-57
2022/09/19 19:29:29;;;;;;;10.40;2.23;;;;;;;;;;10376804;28;20190;-57
2022/09/19 19:34:30;;;;;;;4.45;1.52;;;;;;;;;;10378151;28;20358;-57
2022/09/19 19:39:33;;;;;;;2.65;1.60;;;;;;;;;;10387652;28;20549;-58
2022/09/19 19:44:33;;;;;;;2.67;1.25;;;;;;;;;;10381476;28;20062;-57
2022/09/19 19:49:33;;;;;;;5.28;1.48;;;;;;;;;;10373105;28;20109;-53
2022/09/19 19:54:34;;;;;;;1.83;1.27;;;;;;;;;;10373337;28;20038;-55
2022/09/19 19:59:34;;;;;;;2.83;1.43;;;;;;;;;;10379754;28;21093;-53
2022/09/19 20:04:34;;;;;;;6.87;1.73;;;;;;;;;;10381526;28;20029;-53
2022/09/19 20:09:35;;;;;;;8.52;1.67;;;;;;;;;;10391828;28;20067;-54
2022/09/19 20:14:35;;;;;;;5.95;1.45;;;;;;;;;;10381775;28;20050;-66
2022/09/19 20:19:36;;;;;;;5.28;1.50;;;;;;;;;;10378418;28;20026;-54
2022/09/19 20:24:36;;;;;;;6.28;1.77;;;;;;;;;;10360807;28;20022;-57
2022/09/19 20:29:37;;;;;;;3.90;1.37;;;;;;;;;;10365337;28;20428;-54
2022/09/19 20:34:37;;;;;;;6.38;1.75;;;;;;;;;;10365647;28;20219;-54
2022/09/19 20:39:37;;;;;;;6.03;1.50;;;;;;;;;;10352978;28;20026;-54
2022/09/19 20:44:38;;;;;;;2.85;1.40;;;;;;;;;;10353651;28;20029;-65
2022/09/19 20:49:51;;;;;;;4.32;1.30;;;;;;;;;;10367233;28;20057;-67
2022/09/19 20:54:56;;;;;;;9.60;1.50;;;;;;;;;;10431506;23;20136;-60
2022/09/19 20:59:57;;;;;;;6.38;1.58;;;;;;;;;;10435432;28;20025;-62
2022/09/19 21:04:58;;;;;;;4.82;1.80;;;;;;;;;;10437098;28;20041;-55
2022/09/19 21:09:58;;;;;;;7.45;1.85;;;;;;;;;;10416067;28;20544;-53
2022/09/19 21:14:58;;;;;;;6.87;1.33;;;;;;;;;;10412822;28;20036;-48
2022/09/19 21:19:59;;;;;;;4.22;1.45;;;;;;;;;;10427036;28;20450;-49
2022/09/19 21:24:59;;;;;;;14.03;1.80;;;;;;;;;;10408097;28;20021;-47
2022/09/19 21:29:59;;;;;;;2.07;1.30;;;;;;;;;;10419530;28;20035;-48
2022/09/19 21:35:00;;;;;;;2.13;1.30;;;;;;;;;;10425358;28;20477;-46
2022/09/19 21:40:00;;;;;;;0.98;0.90;;;;;;;;;;10404268;28;20519;-47
2022/09/19 21:45:00;;;;;;;1.38;1.10;;;;;;;;;;10402936;28;20037;-48
2022/09/19 21:50:01;;;;;;;1.50;1.03;;;;;;;;;;10404891;28;20609;-50
2022/09/19 21:55:02;;;;;;;4.38;0.93;;;;;;;;;;10403819;28;20045;-50
2022/09/19 22:00:04;;;;;;;2.17;0.90;;;;;;;;;;10405292;28;20017;-51
2022/09/19 22:05:04;;;;;;;3.05;1.20;;;;;;;;;;10405486;28;20057;-50
2022/09/19 22:10:05;;;;;;;1.23;1.07;;;;;;;;;;10400689;28;20100;-48
2022/09/19 22:15:05;;;;;;;1.43;0.90;;;;;;;;;;10404226;28;20034;-50
2022/09/19 22:20:06;;;;;;;1.63;1.17;;;;;;;;;;10404705;28;20985;-49
2022/09/19 22:25:06;;;;;;;3.05;1.60;;;;;;;;;;10405312;28;20463;-51
2022/09/19 22:30:07;;;;;;;3.13;1.25;;;;;;;;;;10403003;28;20104;-50
2022/09/19 22:35:07;;;;;;;2.30;1.10;;;;;;;;;;10405082;28;20030;-50
2022/09/19 22:40:08;;;;;;;5.00;1.17;;;;;;;;;;10404205;28;20480;-50
2022/09/19 22:45:08;;;;;;;7.53;1.20;;;;;;;;;;10406236;28;20064;-49
2022/09/19 22:50:09;;;;;;;8.65;1.30;;;;;;;;;;10407798;28;20072;-48
2022/09/19 22:55:09;;;;;;;11.38;1.38;;;;;;;;;;10412144;28;20401;-47
2022/09/19 23:00:09;;;;;;;2.65;1.20;;;;;;;;;;10411619;28;20465;-51
2022/09/19 23:05:10;;;;;;;1.30;0.90;;;;;;;;;;10409475;28;20086;-49
2022/09/19 23:10:11;;;;;;;5.45;1.25;;;;;;;;;;10409095;28;20025;-51
2022/09/19 23:15:11;;;;;;;4.95;1.05;;;;;;;;;;10411246;28;20061;-50
2022/09/19 23:20:12;;;;;;;1.43;1.00;;;;;;;;;;10408631;28;20117;-50
2022/09/19 23:25:12;;;;;;;2.45;1.10;;;;;;;;;;10411624;28;20121;-47
2022/09/19 23:30:12;;;;;;;9.17;1.33;;;;;;;;;;10409314;28;20041;-48
2022/09/19 23:35:13;;;;;;;1.97;1.03;;;;;;;;;;10410767;28;20063;-47
2022/09/19 23:40:13;;;;;;;5.40;1.50;;;;;;;;;;10409826;28;20037;-48
2022/09/19 23:45:13;;;;;;;0.97;0.90;;;;;;;;;;10415547;28;20129;-47
2022/09/19 23:50:14;;;;;;;3.37;1.00;;;;;;;;;;10411025;28;20030;-49
2022/09/19 23:55:14;;;;;;;5.37;1.13;;;;;;;;;;10421858;28;20115;-48
